Patterson, Louisiana
Current Conditions -  °F | °C
As of 7:35 AM on Thursday 23 Oct 2014 (Local Time) from KPTN Reporting Station
Clear Clear  
Wind Chill: 12°   Ceiling: Unl
Heat Index: 12°   Visibility: 7mi
Dew Point: 11°   Wind: 3mph
Humidity: 94%   Direction: 360°N
Pressure: 30.11"   Gusts: NA
Location:  29.69°N, 91.3°W
Report Text: KPTN 231235Z AUTO 36003KT 7SM CLR 12/11 A3011 RMK AO1
Loading
Personal Weather Stations






























Interactive Weather Map
Tropical Storm Tracking
New forecast layout! Learn more

10-Day Weather Forecast

Advertisements
Track Severe Weather on mobile